createdAt,value
2017-03-16T00:00:12.339Z,4.50
2017-03-16T00:01:12.087Z,4.40
2017-03-16T00:02:11.951Z,4.50
2017-03-16T00:03:11.686Z,4.50
2017-03-16T00:04:11.415Z,4.50
2017-03-16T00:05:11.170Z,4.50
2017-03-16T00:06:10.900Z,4.50
2017-03-16T00:07:10.654Z,4.50
2017-03-16T00:08:10.430Z,4.50
2017-03-16T00:09:10.958Z,4.40
2017-03-16T00:10:10.732Z,4.50
2017-03-16T00:11:10.467Z,4.50
2017-03-16T00:12:10.194Z,4.50
2017-03-16T00:13:09.954Z,4.50
2017-03-16T00:14:12.146Z,4.50
2017-03-16T00:15:11.887Z,4.40
2017-03-16T00:16:12.381Z,4.50
2017-03-16T00:17:12.131Z,4.50
2017-03-16T00:18:11.869Z,4.50
2017-03-16T00:19:11.593Z,4.40
2017-03-16T00:20:11.327Z,4.50
2017-03-16T00:21:11.069Z,4.50
2017-03-16T00:22:10.838Z,4.50
2017-03-16T00:23:10.694Z,4.40
2017-03-16T00:24:10.481Z,4.50
2017-03-16T00:25:10.190Z,4.50
2017-03-16T00:26:09.920Z,4.40
2017-03-16T00:27:09.675Z,4.40
2017-03-16T00:28:09.429Z,4.50
2017-03-16T00:29:09.196Z,4.50
2017-03-16T00:30:08.945Z,4.50
2017-03-16T00:31:08.678Z,4.50
2017-03-16T00:32:08.452Z,4.40
2017-03-16T00:33:08.170Z,4.50
2017-03-16T00:34:07.906Z,4.50
2017-03-16T00:35:07.643Z,4.50
2017-03-16T00:36:07.398Z,4.50
2017-03-16T00:37:07.160Z,4.50
2017-03-16T00:38:06.910Z,4.50
2017-03-16T00:39:06.678Z,4.50
2017-03-16T00:40:06.393Z,4.60
2017-03-16T00:41:06.133Z,4.60
2017-03-16T00:42:06.612Z,4.60
2017-03-16T00:43:06.352Z,4.60
2017-03-16T00:44:06.139Z,4.60
2017-03-16T00:45:05.934Z,4.50
2017-03-16T00:46:05.783Z,4.50
2017-03-16T00:47:05.529Z,4.50
2017-03-16T00:48:05.273Z,4.50
2017-03-16T00:49:05.014Z,4.50
2017-03-16T00:50:04.776Z,4.50
2017-03-16T00:51:04.510Z,4.50
2017-03-16T00:52:04.301Z,4.50
2017-03-16T00:53:04.037Z,4.50
2017-03-16T00:54:03.832Z,4.50
2017-03-16T00:55:03.558Z,4.50
2017-03-16T00:56:03.289Z,4.50
2017-03-16T00:57:03.041Z,4.50
2017-03-16T00:58:02.856Z,4.50
2017-03-16T00:59:03.378Z,4.50
2017-03-16T01:00:03.900Z,4.50
2017-03-16T01:01:03.649Z,4.60
2017-03-16T01:02:03.391Z,4.50
2017-03-16T01:03:03.170Z,4.50
2017-03-16T01:04:02.929Z,4.50
2017-03-16T01:05:02.650Z,4.50
2017-03-16T01:06:02.450Z,4.50
2017-03-16T01:07:02.246Z,4.50
2017-03-16T01:08:02.034Z,4.50
2017-03-16T01:09:01.778Z,4.50
2017-03-16T01:10:01.528Z,4.50
2017-03-16T01:11:01.240Z,4.50
2017-03-16T01:12:00.967Z,4.50
2017-03-16T01:13:02.752Z,4.50
2017-03-16T01:14:02.466Z,4.50
2017-03-16T01:15:02.258Z,4.50
2017-03-16T01:16:02.042Z,4.50
2017-03-16T01:17:01.783Z,4.50
2017-03-16T01:18:01.534Z,4.50
2017-03-16T01:19:01.279Z,4.50
2017-03-16T01:20:01.012Z,4.50
2017-03-16T01:21:00.749Z,4.50
2017-03-16T01:22:00.491Z,4.50
2017-03-16T01:23:00.227Z,4.50
2017-03-16T01:23:59.974Z,4.40
2017-03-16T01:24:59.693Z,4.40
2017-03-16T01:25:59.418Z,4.40
2017-03-16T01:26:59.150Z,4.50
2017-03-16T01:27:59.711Z,4.40
2017-03-16T01:28:59.476Z,4.40
2017-03-16T01:29:59.289Z,4.40
2017-03-16T01:30:59.102Z,4.40
2017-03-16T01:31:58.823Z,4.40
2017-03-16T01:32:58.547Z,4.40
2017-03-16T01:33:58.261Z,4.40
2017-03-16T01:34:57.989Z,4.40
2017-03-16T01:35:57.726Z,4.40
2017-03-16T01:36:57.496Z,4.40
2017-03-16T01:37:57.334Z,4.40
2017-03-16T01:38:57.079Z,4.40
2017-03-16T01:39:57.570Z,4.40
2017-03-16T01:40:57.320Z,4.40
2017-03-16T01:41:57.048Z,4.40
2017-03-16T01:42:56.841Z,4.40
2017-03-16T01:43:56.623Z,4.40
2017-03-16T01:44:56.373Z,4.40
2017-03-16T01:45:56.230Z,4.40
2017-03-16T01:46:55.937Z,4.40
2017-03-16T01:47:55.677Z,4.40
2017-03-16T01:48:55.407Z,4.40
2017-03-16T01:49:55.133Z,4.40
2017-03-16T01:50:54.876Z,4.40
2017-03-16T01:51:54.626Z,4.40
2017-03-16T01:52:54.430Z,4.40
2017-03-16T01:53:54.229Z,4.40
2017-03-16T01:54:53.967Z,4.40
2017-03-16T01:55:53.748Z,4.40
2017-03-16T01:56:53.577Z,4.70
2017-03-16T01:57:53.360Z,4.50
2017-03-16T01:58:53.150Z,4.40
2017-03-16T01:59:53.005Z,4.40
2017-03-16T02:00:52.830Z,4.50
2017-03-16T02:01:52.606Z,4.50
2017-03-16T02:02:52.378Z,4.50
2017-03-16T02:03:52.151Z,4.50
2017-03-16T02:04:51.943Z,4.40
2017-03-16T02:05:51.696Z,4.40
2017-03-16T02:06:51.437Z,4.50
2017-03-16T02:07:51.971Z,4.40
2017-03-16T02:08:51.715Z,4.50
2017-03-16T02:09:51.463Z,4.40
2017-03-16T02:10:51.198Z,4.50
2017-03-16T02:11:50.926Z,4.50
2017-03-16T02:12:50.707Z,4.50
2017-03-16T02:13:50.447Z,4.50
2017-03-16T02:14:50.193Z,4.50
2017-03-16T02:15:49.974Z,4.50
2017-03-16T02:16:49.686Z,4.50
2017-03-16T02:17:49.421Z,4.50
2017-03-16T02:18:49.155Z,4.50
2017-03-16T02:19:48.977Z,4.50
2017-03-16T02:20:48.778Z,4.50
2017-03-16T02:21:48.512Z,4.50
2017-03-16T02:22:48.401Z,4.50
2017-03-16T02:23:48.259Z,4.50
2017-03-16T02:24:48.759Z,4.50
2017-03-16T02:25:48.490Z,4.50
2017-03-16T02:26:48.260Z,4.50
2017-03-16T02:27:47.990Z,4.60
2017-03-16T02:28:47.984Z,4.60
2017-03-16T02:29:48.465Z,4.60
2017-03-16T02:30:48.189Z,4.60
2017-03-16T02:31:47.914Z,4.60
2017-03-16T02:32:47.639Z,4.60
2017-03-16T02:33:47.370Z,4.60
2017-03-16T02:34:47.129Z,4.60
2017-03-16T02:35:47.046Z,4.70
2017-03-16T02:36:46.772Z,4.70
2017-03-16T02:37:46.521Z,4.70
2017-03-16T02:38:46.272Z,4.70
2017-03-16T02:39:46.089Z,4.70
2017-03-16T02:40:45.823Z,4.70
2017-03-16T02:41:45.562Z,4.70
2017-03-16T02:42:45.282Z,4.70
2017-03-16T02:43:45.019Z,4.70
2017-03-16T02:44:44.754Z,4.70
2017-03-16T02:45:44.478Z,4.70
2017-03-16T02:46:44.234Z,4.70
2017-03-16T02:47:43.970Z,4.60
2017-03-16T02:48:43.756Z,4.70
2017-03-16T02:49:43.511Z,4.60
2017-03-16T02:50:43.234Z,4.60
2017-03-16T02:51:42.995Z,4.60
2017-03-16T02:52:42.716Z,4.60
2017-03-16T02:53:42.498Z,4.60
2017-03-16T02:54:42.985Z,4.50
2017-03-16T02:55:42.716Z,4.50
2017-03-16T02:56:42.451Z,4.60
2017-03-16T02:57:42.167Z,4.50
2017-03-16T02:58:41.895Z,4.60
2017-03-16T02:59:41.615Z,4.50
2017-03-16T03:00:41.338Z,4.60
2017-03-16T03:01:41.077Z,4.60
2017-03-16T03:02:40.840Z,4.60
2017-03-16T03:03:40.595Z,4.60
2017-03-16T03:04:40.327Z,4.60
2017-03-16T03:05:40.095Z,4.60
2017-03-16T03:06:39.820Z,4.70
2017-03-16T03:07:39.637Z,4.70
2017-03-16T03:08:39.382Z,4.70
2017-03-16T03:09:39.200Z,4.70
2017-03-16T03:10:38.952Z,4.70
2017-03-16T03:11:38.681Z,4.70
2017-03-16T03:12:39.172Z,4.70
2017-03-16T03:13:38.898Z,4.80
2017-03-16T03:14:38.653Z,4.80
2017-03-16T03:15:38.417Z,4.80
2017-03-16T03:16:38.150Z,4.80
2017-03-16T03:17:38.623Z,4.80
2017-03-16T03:18:38.366Z,4.80
2017-03-16T03:19:38.840Z,4.80
2017-03-16T03:20:38.561Z,4.90
2017-03-16T03:21:38.343Z,4.90
2017-03-16T03:22:38.108Z,4.90
2017-03-16T03:23:37.922Z,4.90
2017-03-16T03:24:37.646Z,4.90
2017-03-16T03:25:37.374Z,4.90
2017-03-16T03:26:37.114Z,4.90
2017-03-16T03:27:36.861Z,4.90
2017-03-16T03:28:36.609Z,4.90
2017-03-16T03:29:36.398Z,5.00
2017-03-16T03:30:36.125Z,5.00
2017-03-16T03:31:35.938Z,5.00
2017-03-16T03:32:35.669Z,4.90
2017-03-16T03:33:35.445Z,5.00
2017-03-16T03:34:35.951Z,5.00
2017-03-16T03:35:35.713Z,5.00
2017-03-16T03:36:36.219Z,5.00
2017-03-16T03:37:36.015Z,5.00
2017-03-16T03:38:35.760Z,5.10
2017-03-16T03:39:35.491Z,5.00
2017-03-16T03:40:35.239Z,5.10
2017-03-16T03:41:34.993Z,5.10
2017-03-16T03:42:34.717Z,5.10
2017-03-16T03:43:34.446Z,5.10
2017-03-16T03:44:34.242Z,5.10
2017-03-16T03:45:34.689Z,5.10
2017-03-16T03:46:34.429Z,5.10
2017-03-16T03:47:34.151Z,5.10
2017-03-16T03:48:33.924Z,5.20
2017-03-16T03:49:37.670Z,5.10
2017-03-16T03:50:37.399Z,5.20
2017-03-16T03:51:37.121Z,5.20
2017-03-16T03:52:36.842Z,5.20
2017-03-16T03:53:36.589Z,5.20
2017-03-16T03:54:36.343Z,5.20
2017-03-16T03:55:36.831Z,5.30
2017-03-16T03:56:36.545Z,5.30
2017-03-16T03:57:36.287Z,5.30
2017-03-16T03:58:36.013Z,5.30
2017-03-16T03:59:35.762Z,5.30
2017-03-16T04:00:35.469Z,5.40
2017-03-16T04:01:35.203Z,5.40
2017-03-16T04:02:34.912Z,5.40
2017-03-16T04:03:34.647Z,5.40
2017-03-16T04:04:34.386Z,5.40
2017-03-16T04:05:34.104Z,5.40
2017-03-16T04:06:33.974Z,5.40
2017-03-16T04:07:33.674Z,5.40
2017-03-16T04:08:33.370Z,5.40
2017-03-16T04:09:33.107Z,5.40
2017-03-16T04:10:32.828Z,5.50
2017-03-16T04:11:32.604Z,5.50
2017-03-16T04:12:32.372Z,5.50
2017-03-16T04:13:32.136Z,5.50
2017-03-16T04:14:31.874Z,5.50
2017-03-16T04:15:31.593Z,5.50
2017-03-16T04:16:31.294Z,5.50
2017-03-16T04:17:31.005Z,5.50
2017-03-16T04:18:30.738Z,5.50
2017-03-16T04:19:30.493Z,5.50
2017-03-16T04:20:30.182Z,5.60
2017-03-16T04:21:29.897Z,5.60
2017-03-16T04:22:29.658Z,5.60
2017-03-16T04:23:29.402Z,5.60
2017-03-16T04:24:29.143Z,5.60
2017-03-16T04:25:28.858Z,5.60
2017-03-16T04:26:28.615Z,5.60
2017-03-16T04:27:28.823Z,5.60
2017-03-16T04:28:28.539Z,5.60
2017-03-16T04:29:28.297Z,5.60
2017-03-16T04:30:28.028Z,5.60
2017-03-16T04:31:27.790Z,5.70
2017-03-16T04:32:27.501Z,5.70
2017-03-16T04:33:27.232Z,5.70
2017-03-16T04:34:26.963Z,5.60
2017-03-16T04:35:26.681Z,5.70
2017-03-16T04:36:26.438Z,5.70
2017-03-16T04:37:26.173Z,5.70
2017-03-16T04:38:25.947Z,5.70
2017-03-16T04:39:25.690Z,5.70
2017-03-16T04:40:25.437Z,5.70
2017-03-16T04:41:25.154Z,5.70
2017-03-16T04:42:24.866Z,5.70
2017-03-16T04:43:25.337Z,5.70
2017-03-16T04:44:25.058Z,5.70
2017-03-16T04:45:24.790Z,5.70
2017-03-16T04:46:24.580Z,5.70
2017-03-16T04:47:24.296Z,5.60
2017-03-16T04:48:24.071Z,5.60
2017-03-16T04:49:23.795Z,5.60
2017-03-16T04:50:23.534Z,5.60
2017-03-16T04:51:23.313Z,5.60
2017-03-16T04:52:23.063Z,5.60
2017-03-16T04:53:22.838Z,5.60
2017-03-16T04:54:22.585Z,5.60
2017-03-16T04:55:22.380Z,5.60
2017-03-16T04:56:22.134Z,5.60
2017-03-16T04:57:21.864Z,5.60
2017-03-16T04:58:21.587Z,5.60
2017-03-16T04:59:21.343Z,5.60
2017-03-16T05:00:21.077Z,5.60
2017-03-16T05:01:20.810Z,5.60
2017-03-16T05:02:20.545Z,5.60
2017-03-16T05:03:20.290Z,5.70
2017-03-16T05:04:20.051Z,5.60
2017-03-16T05:05:19.826Z,5.70
2017-03-16T05:06:19.551Z,5.60
2017-03-16T05:07:19.313Z,5.70
2017-03-16T05:08:19.042Z,5.70
2017-03-16T05:09:18.846Z,5.70
2017-03-16T05:10:18.610Z,5.80
2017-03-16T05:11:19.339Z,5.80
2017-03-16T05:12:19.113Z,5.80
2017-03-16T05:13:18.882Z,5.80
2017-03-16T05:14:18.591Z,5.80
2017-03-16T05:15:18.382Z,5.80
2017-03-16T05:16:18.116Z,5.90
2017-03-16T05:17:17.898Z,5.90
2017-03-16T05:18:17.667Z,5.80
2017-03-16T05:19:17.686Z,5.80
2017-03-16T05:20:17.438Z,5.80
2017-03-16T05:21:17.173Z,5.80
2017-03-16T05:22:16.972Z,5.80
2017-03-16T05:23:16.720Z,5.80
2017-03-16T05:24:18.680Z,5.80
2017-03-16T05:25:18.411Z,5.80
2017-03-16T05:26:18.124Z,5.80
2017-03-16T05:27:17.867Z,5.90
2017-03-16T05:28:17.613Z,5.90
2017-03-16T05:29:17.342Z,5.90
2017-03-16T05:30:17.146Z,5.90
2017-03-16T05:31:17.009Z,5.90
2017-03-16T05:32:16.737Z,5.90
2017-03-16T05:33:16.471Z,5.90
2017-03-16T05:34:16.181Z,5.90
2017-03-16T05:35:16.304Z,5.90
2017-03-16T05:36:16.041Z,5.90
2017-03-16T05:37:15.753Z,6.00
2017-03-16T05:38:15.474Z,5.90
2017-03-16T05:39:15.261Z,5.90
2017-03-16T05:40:14.984Z,6.00
2017-03-16T05:41:14.703Z,5.90
2017-03-16T05:42:14.414Z,6.00
2017-03-16T05:43:14.135Z,5.90
2017-03-16T05:44:13.850Z,6.00
2017-03-16T05:45:13.634Z,5.90
2017-03-16T05:46:13.374Z,6.00
2017-03-16T05:47:13.155Z,6.00
2017-03-16T05:48:12.897Z,6.00
2017-03-16T05:49:12.596Z,6.00
2017-03-16T05:50:13.063Z,6.00
2017-03-16T05:51:12.787Z,6.00
2017-03-16T05:52:13.249Z,6.00
2017-03-16T05:53:13.028Z,6.00
2017-03-16T05:54:12.735Z,6.00
2017-03-16T05:55:12.471Z,6.00
2017-03-16T05:56:12.266Z,6.10
2017-03-16T05:57:12.001Z,6.10
2017-03-16T05:58:11.706Z,6.10
2017-03-16T05:59:11.434Z,6.10
2017-03-16T06:00:11.918Z,6.10
2017-03-16T06:01:11.720Z,6.10
2017-03-16T06:02:11.427Z,6.10
2017-03-16T06:03:11.154Z,6.10
2017-03-16T06:04:11.619Z,6.10
2017-03-16T06:05:11.349Z,6.10
2017-03-16T06:06:11.105Z,6.10
2017-03-16T06:07:10.843Z,6.10
2017-03-16T06:08:10.592Z,6.10
2017-03-16T06:09:10.335Z,6.10
2017-03-16T06:10:10.067Z,6.10
2017-03-16T06:11:10.538Z,6.20
2017-03-16T06:12:10.274Z,6.10
2017-03-16T06:13:10.047Z,6.10
2017-03-16T06:14:13.871Z,6.20
2017-03-16T06:15:13.703Z,6.20
2017-03-16T06:24:04.317Z,6.20
2017-03-16T06:25:04.102Z,6.30
2017-03-16T06:26:03.865Z,6.30
2017-03-16T06:27:03.645Z,6.30
2017-03-16T06:28:03.391Z,6.30
2017-03-16T06:29:03.132Z,6.40
2017-03-16T06:30:03.609Z,6.40
2017-03-16T06:31:13.113Z,6.40
2017-03-16T06:32:12.906Z,6.40
2017-03-16T06:33:12.632Z,6.50
2017-03-16T06:34:12.378Z,6.50
2017-03-16T06:35:12.101Z,6.50
2017-03-16T06:36:11.843Z,6.50
2017-03-16T06:37:11.566Z,6.50
2017-03-16T06:38:11.326Z,6.50
2017-03-16T06:39:11.804Z,6.60
2017-03-16T06:40:11.655Z,6.50
2017-03-16T06:41:11.385Z,6.60
2017-03-16T06:42:11.146Z,6.60
2017-03-16T06:43:10.883Z,6.60
2017-03-16T06:44:10.626Z,6.60
2017-03-16T06:45:10.358Z,6.60
2017-03-16T06:46:10.914Z,6.60
2017-03-16T06:47:10.638Z,6.60
2017-03-16T06:48:10.404Z,6.60
2017-03-16T06:49:10.174Z,6.60
2017-03-16T06:50:12.923Z,6.60
2017-03-16T06:51:12.730Z,6.60
2017-03-16T06:52:12.728Z,6.60
2017-03-16T06:53:12.533Z,6.60
2017-03-16T06:54:12.367Z,6.70
2017-03-16T06:55:12.140Z,6.70
2017-03-16T06:56:11.917Z,6.70
2017-03-16T06:57:11.635Z,6.70
2017-03-16T06:58:11.349Z,6.70
2017-03-16T06:59:11.098Z,6.70
2017-03-16T07:00:10.881Z,6.70
2017-03-16T07:01:10.661Z,6.70
2017-03-16T07:02:10.439Z,6.70
2017-03-16T07:03:10.220Z,6.70
2017-03-16T07:04:10.010Z,6.70
2017-03-16T07:05:09.806Z,6.70
2017-03-16T07:06:09.584Z,6.70
2017-03-16T07:07:09.332Z,6.70
2017-03-16T07:08:09.057Z,6.70
2017-03-16T07:09:08.793Z,6.80
2017-03-16T07:10:08.657Z,6.80
2017-03-16T07:11:08.417Z,6.80
2017-03-16T07:12:08.181Z,6.90
2017-03-16T07:13:07.970Z,6.90
2017-03-16T07:14:07.744Z,6.90
2017-03-16T07:15:07.473Z,6.90
2017-03-16T07:16:07.194Z,6.90
2017-03-16T07:17:06.918Z,6.90
2017-03-16T07:18:06.639Z,6.90
2017-03-16T07:19:06.433Z,6.90
2017-03-16T07:20:06.146Z,6.90
2017-03-16T07:21:05.897Z,7.00
2017-03-16T07:22:05.664Z,7.00
2017-03-16T07:23:05.555Z,7.00
2017-03-16T07:24:05.267Z,7.00
2017-03-16T07:25:05.011Z,7.00
2017-03-16T07:26:04.771Z,7.00
2017-03-16T07:27:04.498Z,7.00
2017-03-16T07:28:04.206Z,7.00
2017-03-16T07:29:04.027Z,7.10
2017-03-16T07:30:03.783Z,7.10
2017-03-16T07:31:03.535Z,7.10
2017-03-16T07:32:03.986Z,7.10
2017-03-16T07:33:03.701Z,7.10
2017-03-16T07:34:03.437Z,7.10
2017-03-16T07:35:03.213Z,7.10
2017-03-16T07:36:03.030Z,7.10
2017-03-16T07:37:02.768Z,7.10
2017-03-16T07:38:02.532Z,7.10
2017-03-16T07:39:02.258Z,7.10
2017-03-16T07:40:02.039Z,7.10
2017-03-16T07:41:01.766Z,7.10
2017-03-16T07:42:01.523Z,7.20
2017-03-16T07:43:01.254Z,7.20
2017-03-16T07:44:00.978Z,7.10
2017-03-16T07:45:00.715Z,7.20
2017-03-16T07:46:00.470Z,7.20
2017-03-16T07:47:00.206Z,7.20
2017-03-16T07:47:59.954Z,7.20
2017-03-16T07:48:59.672Z,7.20
2017-03-16T07:49:59.387Z,7.30
2017-03-16T07:50:59.217Z,7.30
2017-03-16T07:51:58.959Z,7.20
2017-03-16T07:52:59.426Z,7.20
2017-03-16T07:54:00.674Z,7.30
2017-03-16T07:55:01.978Z,7.30
2017-03-16T07:56:01.714Z,7.30
2017-03-16T07:57:01.436Z,7.30
2017-03-16T07:58:02.206Z,7.30
2017-03-16T07:59:02.374Z,7.30
2017-03-16T08:00:03.906Z,7.40
2017-03-16T08:01:04.626Z,7.40
2017-03-16T08:02:04.367Z,7.30
2017-03-16T08:03:04.086Z,7.40
2017-03-16T08:04:03.814Z,7.30
2017-03-16T08:05:04.257Z,7.40
2017-03-16T08:06:05.892Z,7.40
2017-03-16T08:07:05.595Z,7.40
2017-03-16T08:08:06.135Z,7.40
2017-03-16T08:09:07.347Z,7.40
2017-03-16T08:10:07.291Z,7.30
2017-03-16T08:11:07.046Z,7.30
2017-03-16T08:12:06.757Z,7.40
2017-03-16T08:13:06.487Z,7.40
2017-03-16T08:14:06.465Z,7.50
2017-03-16T08:15:08.390Z,7.50
2017-03-16T08:16:08.894Z,7.50
2017-03-16T08:17:08.642Z,7.50
2017-03-16T08:18:08.366Z,7.50
2017-03-16T08:19:11.719Z,7.50
2017-03-16T08:20:11.831Z,7.50
2017-03-16T08:21:11.558Z,7.50
2017-03-16T08:22:11.300Z,7.50
2017-03-16T08:23:12.297Z,7.50
2017-03-16T08:24:12.037Z,7.50
2017-03-16T08:25:11.789Z,7.50
2017-03-16T08:26:12.674Z,7.50
2017-03-16T08:27:12.398Z,7.50
2017-03-16T08:28:12.141Z,7.50
2017-03-16T08:29:12.040Z,7.50
2017-03-16T08:30:11.778Z,7.50
2017-03-16T08:31:11.509Z,7.50
2017-03-16T08:32:11.253Z,7.50
2017-03-16T08:33:10.986Z,7.40
2017-03-16T08:34:10.737Z,7.40
2017-03-16T08:35:10.532Z,7.50
2017-03-16T08:36:10.281Z,7.50
2017-03-16T08:37:10.213Z,7.50
2017-03-16T08:38:09.918Z,7.60
2017-03-16T08:39:09.690Z,7.60
2017-03-16T08:40:09.566Z,7.60
2017-03-16T08:41:09.278Z,7.60
2017-03-16T08:42:08.998Z,7.60
2017-03-16T08:43:08.729Z,7.60
2017-03-16T08:44:08.453Z,7.60
2017-03-16T08:45:08.218Z,7.70
2017-03-16T08:46:07.955Z,7.70
2017-03-16T08:47:07.737Z,7.80
2017-03-16T08:48:07.501Z,7.80
2017-03-16T08:49:07.226Z,7.80
2017-03-16T08:50:06.982Z,7.80
2017-03-16T08:51:06.708Z,7.80
2017-03-16T08:52:07.170Z,7.80
2017-03-16T08:53:06.935Z,7.80
2017-03-16T08:54:06.691Z,7.70
2017-03-16T08:55:06.535Z,7.70
2017-03-16T08:56:06.261Z,7.70
2017-03-16T08:57:06.007Z,7.70
2017-03-16T08:58:05.719Z,7.80
2017-03-16T08:59:07.619Z,7.90
2017-03-16T09:00:07.373Z,7.90
2017-03-16T09:01:07.108Z,7.90
2017-03-16T09:02:06.860Z,7.90
2017-03-16T09:03:06.833Z,7.90
2017-03-16T09:04:06.565Z,8.00
2017-03-16T09:05:06.323Z,8.00
2017-03-16T09:06:06.050Z,8.10
2017-03-16T09:07:05.792Z,8.10
2017-03-16T09:08:05.570Z,8.10
2017-03-16T09:09:05.619Z,8.10
2017-03-16T09:10:05.355Z,8.20
2017-03-16T09:11:05.115Z,8.10
2017-03-16T09:12:06.430Z,8.10
2017-03-16T09:13:06.942Z,8.10
2017-03-16T09:14:06.979Z,8.10
2017-03-16T09:15:09.024Z,8.20
2017-03-16T09:16:09.066Z,8.20
2017-03-16T09:17:08.844Z,8.20
2017-03-16T09:18:08.632Z,8.10
2017-03-16T09:19:08.343Z,8.10
2017-03-16T09:20:08.070Z,8.10
2017-03-16T09:21:07.799Z,8.20
2017-03-16T09:22:07.573Z,8.20
2017-03-16T09:23:07.311Z,8.00
2017-03-16T09:24:07.046Z,8.30
2017-03-16T09:25:06.845Z,8.40
2017-03-16T09:26:06.573Z,8.30
2017-03-16T09:27:06.321Z,8.30
2017-03-16T09:28:06.045Z,8.40
2017-03-16T09:29:05.809Z,8.30
2017-03-16T09:30:05.538Z,8.30
2017-03-16T09:31:05.261Z,8.30
2017-03-16T09:32:05.027Z,8.40
2017-03-16T09:33:04.831Z,8.50
2017-03-16T09:34:04.592Z,8.50
2017-03-16T09:35:04.364Z,8.50
2017-03-16T09:36:04.094Z,8.40
2017-03-16T09:37:04.587Z,8.40
2017-03-16T09:38:04.313Z,8.50
2017-03-16T09:39:05.247Z,8.60
2017-03-16T09:40:05.021Z,8.60
2017-03-16T09:41:04.794Z,8.60
2017-03-16T09:42:04.584Z,8.60
2017-03-16T09:43:04.307Z,8.60
2017-03-16T09:44:04.040Z,8.80
2017-03-16T09:45:04.148Z,8.80
2017-03-16T09:46:03.932Z,8.80
2017-03-16T09:47:03.678Z,8.70
2017-03-16T09:48:03.454Z,8.70
2017-03-16T09:49:03.295Z,8.70
2017-03-16T09:50:03.031Z,8.70
2017-03-16T09:51:02.794Z,8.80
2017-03-16T09:52:02.575Z,8.80
2017-03-16T09:53:02.393Z,8.90
2017-03-16T09:54:02.118Z,8.90
2017-03-16T09:55:01.903Z,8.90
2017-03-16T09:56:01.750Z,8.80
2017-03-16T09:57:01.474Z,8.80
2017-03-16T09:58:01.240Z,8.90
2017-03-16T09:59:00.934Z,9.10
2017-03-16T10:00:00.674Z,9.10
2017-03-16T10:01:00.412Z,9.10
2017-03-16T10:02:00.152Z,9.20
2017-03-16T10:02:59.894Z,9.30
2017-03-16T10:03:59.702Z,9.20
2017-03-16T10:04:59.422Z,9.30
2017-03-16T10:05:59.159Z,9.20
2017-03-16T10:06:59.626Z,9.20
2017-03-16T10:07:59.398Z,9.20
2017-03-16T10:08:59.140Z,9.30
2017-03-16T10:09:58.943Z,9.30
2017-03-16T10:10:58.667Z,9.40
2017-03-16T10:11:58.414Z,9.70
2017-03-16T10:12:58.208Z,9.70
2017-03-16T10:13:57.998Z,10.00
2017-03-16T10:14:57.742Z,10.00
2017-03-16T10:15:57.458Z,9.90
2017-03-16T10:16:57.214Z,10.00
2017-03-16T10:17:56.968Z,10.00
2017-03-16T10:19:03.106Z,10.00
2017-03-16T10:20:02.917Z,9.90
2017-03-16T10:21:02.790Z,9.90
2017-03-16T10:22:03.278Z,10.00
2017-03-16T10:23:03.031Z,10.10
2017-03-16T10:24:02.849Z,10.10
2017-03-16T10:25:02.607Z,10.10
2017-03-16T10:26:02.434Z,10.00
2017-03-16T10:27:02.202Z,10.00
2017-03-16T10:28:01.982Z,9.90
2017-03-16T10:29:01.722Z,9.80
2017-03-16T10:30:01.498Z,9.80
2017-03-16T10:31:01.223Z,9.90
2017-03-16T10:32:00.967Z,9.90
2017-03-16T10:33:00.686Z,9.80
2017-03-16T10:34:00.454Z,9.80
2017-03-16T10:35:00.265Z,9.60
2017-03-16T10:35:59.990Z,9.70
2017-03-16T10:36:59.710Z,9.80
2017-03-16T10:37:59.456Z,10.00
2017-03-16T10:38:59.186Z,10.00
2017-03-16T10:39:58.950Z,9.90
2017-03-16T10:40:58.726Z,9.90
2017-03-16T10:41:58.447Z,9.90
2017-03-16T10:42:58.173Z,9.90
2017-03-16T10:43:57.914Z,10.00
2017-03-16T10:44:58.389Z,10.20
2017-03-16T10:45:58.130Z,10.20
2017-03-16T10:46:57.838Z,10.10
2017-03-16T10:47:57.631Z,10.10
2017-03-16T10:48:57.355Z,10.10
2017-03-16T10:49:57.085Z,10.10
2017-03-16T10:50:56.846Z,10.00
2017-03-16T10:51:56.646Z,10.10
2017-03-16T10:52:56.426Z,10.30
2017-03-16T10:53:56.906Z,10.20
2017-03-16T10:54:56.627Z,10.10
2017-03-16T10:55:56.421Z,10.10
2017-03-16T10:56:56.190Z,10.10
2017-03-16T10:57:55.913Z,10.00
2017-03-16T10:58:55.655Z,10.10
2017-03-16T10:59:55.485Z,10.20
2017-03-16T11:00:55.217Z,10.20
2017-03-16T11:01:54.965Z,10.40
2017-03-16T11:02:54.711Z,10.50
2017-03-16T11:03:54.451Z,10.50
2017-03-16T11:04:54.786Z,10.60
2017-03-16T11:05:54.551Z,10.70
2017-03-16T11:06:54.411Z,10.80
2017-03-16T11:07:54.137Z,10.70
2017-03-16T11:08:53.872Z,10.70
2017-03-16T11:09:53.678Z,10.60
2017-03-16T11:10:53.442Z,10.60
2017-03-16T11:11:53.210Z,10.60
2017-03-16T11:12:52.967Z,10.80
2017-03-16T11:13:52.783Z,10.70
2017-03-16T11:14:52.508Z,10.70
2017-03-16T11:15:52.239Z,10.70
2017-03-16T11:16:52.014Z,10.70
2017-03-16T11:17:51.762Z,10.70
2017-03-16T11:18:51.502Z,10.70
2017-03-16T11:19:51.235Z,10.80
2017-03-16T11:20:51.011Z,10.80
2017-03-16T11:21:50.890Z,10.90
2017-03-16T11:22:50.649Z,10.90
2017-03-16T11:23:50.387Z,11.00
2017-03-16T11:24:50.874Z,11.00
2017-03-16T11:25:50.646Z,11.00
2017-03-16T11:26:50.387Z,11.00
2017-03-16T11:27:50.150Z,10.90
2017-03-16T11:28:49.894Z,11.10
2017-03-16T11:29:50.435Z,11.10
2017-03-16T11:30:50.276Z,11.10
2017-03-16T11:31:49.998Z,11.10
2017-03-16T11:32:49.758Z,11.20
2017-03-16T11:33:49.518Z,11.00
2017-03-16T11:34:49.257Z,11.10
2017-03-16T11:35:48.990Z,11.20
2017-03-16T11:36:48.714Z,11.30
2017-03-16T11:37:48.474Z,11.30
2017-03-16T11:38:48.200Z,11.10
2017-03-16T11:39:47.906Z,11.00
2017-03-16T11:40:47.658Z,11.00
2017-03-16T11:41:47.410Z,10.90
2017-03-16T11:42:47.158Z,11.10
2017-03-16T11:43:46.912Z,11.10
2017-03-16T11:44:46.686Z,11.10
2017-03-16T11:45:46.414Z,11.10
2017-03-16T11:46:46.178Z,11.00
2017-03-16T11:47:45.894Z,11.10
2017-03-16T11:48:45.646Z,11.20
2017-03-16T11:49:45.390Z,11.20
2017-03-16T11:50:45.110Z,11.20
2017-03-16T11:51:44.861Z,11.30
2017-03-16T11:52:44.591Z,11.30
2017-03-16T11:53:44.393Z,11.20
2017-03-16T11:54:44.135Z,11.10
2017-03-16T11:55:43.854Z,11.10
2017-03-16T11:56:43.617Z,11.00
2017-03-16T11:57:43.348Z,11.00
2017-03-16T11:58:43.211Z,11.10
2017-03-16T11:59:43.015Z,11.00
2017-03-16T12:00:42.754Z,11.10
2017-03-16T12:01:42.534Z,11.10
2017-03-16T12:02:43.046Z,11.20
2017-03-16T12:03:42.792Z,11.20
2017-03-16T12:04:42.520Z,11.10
2017-03-16T12:05:42.224Z,11.10
2017-03-16T12:06:41.983Z,11.10
2017-03-16T12:07:41.734Z,11.10
2017-03-16T12:08:41.495Z,11.20
2017-03-16T12:09:41.319Z,11.10
2017-03-16T12:10:41.057Z,11.10
2017-03-16T12:11:41.514Z,11.10
2017-03-16T12:12:41.268Z,11.20
2017-03-16T12:13:41.066Z,11.30
2017-03-16T12:14:40.799Z,11.30
2017-03-16T12:15:40.521Z,11.20
2017-03-16T12:16:40.518Z,11.20
2017-03-16T12:17:40.269Z,11.20
2017-03-16T12:18:40.037Z,11.20
2017-03-16T12:19:39.765Z,11.30
2017-03-16T12:20:40.279Z,11.30
2017-03-16T12:21:40.045Z,11.40
2017-03-16T12:22:39.775Z,11.40
2017-03-16T12:23:39.550Z,11.50
2017-03-16T12:24:39.277Z,11.60
2017-03-16T12:25:39.014Z,11.70
2017-03-16T12:26:38.858Z,11.80
2017-03-16T12:27:38.586Z,11.80
2017-03-16T12:28:38.380Z,11.80
2017-03-16T12:29:38.147Z,11.80
2017-03-16T12:30:37.888Z,11.90
2017-03-16T12:31:37.606Z,11.90
2017-03-16T12:32:37.412Z,11.80
2017-03-16T12:33:37.210Z,11.90
2017-03-16T12:34:37.678Z,11.90
2017-03-16T12:35:38.251Z,11.80
2017-03-16T12:36:38.892Z,11.80
2017-03-16T12:37:38.657Z,11.80
2017-03-16T12:38:38.407Z,11.80
2017-03-16T12:39:38.246Z,11.80
2017-03-16T12:40:37.986Z,11.80
2017-03-16T12:41:37.723Z,11.90
2017-03-16T12:42:37.459Z,12.00
2017-03-16T12:43:37.253Z,12.00
2017-03-16T12:44:37.042Z,12.00
2017-03-16T12:45:36.882Z,12.00
2017-03-16T12:46:36.734Z,12.10
2017-03-16T12:47:36.493Z,12.30
2017-03-16T12:48:36.221Z,12.20
2017-03-16T12:49:35.972Z,12.10
2017-03-16T12:50:35.697Z,12.10
2017-03-16T12:51:35.441Z,12.10
2017-03-16T12:52:35.193Z,12.20
2017-03-16T12:53:35.670Z,12.30
2017-03-16T12:54:35.458Z,12.30
2017-03-16T12:55:35.213Z,12.30
2017-03-16T12:56:34.939Z,12.40
2017-03-16T12:57:34.694Z,12.20
2017-03-16T12:58:34.449Z,12.10
2017-03-16T12:59:34.178Z,12.20
2017-03-16T13:00:33.995Z,12.20
2017-03-16T13:01:34.500Z,12.10
2017-03-16T13:02:34.235Z,12.10
2017-03-16T13:03:33.987Z,12.10
2017-03-16T13:04:33.739Z,12.00
2017-03-16T13:05:33.490Z,12.10
2017-03-16T13:06:33.410Z,12.10
2017-03-16T13:07:33.239Z,12.00
2017-03-16T13:08:32.962Z,12.10
2017-03-16T13:09:32.693Z,12.00
2017-03-16T13:10:32.428Z,12.00
2017-03-16T13:11:32.193Z,12.00
2017-03-16T13:12:32.006Z,12.00
2017-03-16T13:13:31.749Z,12.10
2017-03-16T13:14:31.482Z,12.10
2017-03-16T13:15:31.263Z,12.10
2017-03-16T13:16:31.064Z,12.00
2017-03-16T13:17:30.831Z,12.00
2017-03-16T13:18:30.647Z,12.00